sensor_id;sensor_type;location;lat;lon;timestamp;temperature;humidity
4312;DHT22;77323;49.086;9.284;2024-03-23T00:51:13;11.50;58.10
4312;DHT22;77323;49.086;9.284;2024-03-23T00:52:14;11.50;58.20
4312;DHT22;77323;49.086;9.284;2024-03-23T00:53:15;11.50;58.20
4312;DHT22;77323;49.086;9.284;2024-03-23T00:54:15;11.50;58.20
4312;DHT22;77323;49.086;9.284;2024-03-23T00:55:17;11.50;58.20
4312;DHT22;77323;49.086;9.284;2024-03-23T00:56:17;11.40;58.20
4312;DHT22;77323;49.086;9.284;2024-03-23T00:57:18;11.40;58.20
4312;DHT22;77323;49.086;9.284;2024-03-23T00:58:20;11.40;58.20
4312;DHT22;77323;49.086;9.284;2024-03-23T00:59:20;11.40;58.30
4312;DHT22;77323;49.086;9.284;2024-03-23T01:00:22;11.40;58.40
4312;DHT22;77323;49.086;9.284;2024-03-23T01:01:23;11.40;58.40
4312;DHT22;77323;49.086;9.284;2024-03-23T01:02:24;11.40;58.50
4312;DHT22;77323;49.086;9.284;2024-03-23T01:03:25;11.40;58.50
4312;DHT22;77323;49.086;9.284;2024-03-23T01:04:25;11.40;58.50
4312;DHT22;77323;49.086;9.284;2024-03-23T01:05:26;11.40;58.60
4312;DHT22;77323;49.086;9.284;2024-03-23T01:06:28;11.40;58.60
4312;DHT22;77323;49.086;9.284;2024-03-23T01:07:28;11.30;58.50
4312;DHT22;77323;49.086;9.284;2024-03-23T01:08:29;11.30;58.60
4312;DHT22;77323;49.086;9.284;2024-03-23T01:09:29;11.40;58.70
4312;DHT22;77323;49.086;9.284;2024-03-23T01:10:31;11.30;58.60
4312;DHT22;77323;49.086;9.284;2024-03-23T01:11:31;11.40;58.70
4312;DHT22;77323;49.086;9.284;2024-03-23T01:12:32;11.30;58.70
4312;DHT22;77323;49.086;9.284;2024-03-23T01:13:33;11.30;58.70
4312;DHT22;77323;49.086;9.284;2024-03-23T01:14:34;11.40;58.90
4312;DHT22;77323;49.086;9.284;2024-03-23T01:15:36;11.30;58.80
4312;DHT22;77323;49.086;9.284;2024-03-23T01:16:37;11.30;58.90
4312;DHT22;77323;49.086;9.284;2024-03-23T01:17:38;11.40;59.00
4312;DHT22;77323;49.086;9.284;2024-03-23T01:18:40;11.30;58.90
4312;DHT22;77323;49.086;9.284;2024-03-23T01:19:40;11.30;59.00
4312;DHT22;77323;49.086;9.284;2024-03-23T01:20:41;11.30;59.10
4312;DHT22;77323;49.086;9.284;2024-03-23T01:21:42;11.40;59.20
4312;DHT22;77323;49.086;9.284;2024-03-23T01:22:44;11.30;59.20
4312;DHT22;77323;49.086;9.284;2024-03-23T01:23:44;11.40;59.30
4312;DHT22;77323;49.086;9.284;2024-03-23T01:24:45;11.30;59.20
4312;DHT22;77323;49.086;9.284;2024-03-23T01:25:53;11.30;59.30
4312;DHT22;77323;49.086;9.284;2024-03-23T01:26:53;11.30;59.40
4312;DHT22;77323;49.086;9.284;2024-03-23T01:27:54;11.30;59.40
4312;DHT22;77323;49.086;9.284;2024-03-23T01:28:55;11.40;59.50
4312;DHT22;77323;49.086;9.284;2024-03-23T01:29:56;11.30;59.40
4312;DHT22;77323;49.086;9.284;2024-03-23T01:30:57;11.30;59.40
4312;DHT22;77323;49.086;9.284;2024-03-23T01:31:57;11.40;59.60
4312;DHT22;77323;49.086;9.284;2024-03-23T01:32:59;11.40;59.60
4312;DHT22;77323;49.086;9.284;2024-03-23T01:34:00;11.40;59.60
4312;DHT22;77323;49.086;9.284;2024-03-23T01:35:00;11.40;59.60
4312;DHT22;77323;49.086;9.284;2024-03-23T01:36:01;11.40;59.60
4312;DHT22;77323;49.086;9.284;2024-03-23T01:37:03;11.50;59.70
4312;DHT22;77323;49.086;9.284;2024-03-23T01:38:04;11.40;59.60
4312;DHT22;77323;49.086;9.284;2024-03-23T01:39:04;11.40;59.60
4312;DHT22;77323;49.086;9.284;2024-03-23T01:40:05;11.40;59.60
4312;DHT22;77323;49.086;9.284;2024-03-23T01:41:07;11.40;59.60
4312;DHT22;77323;49.086;9.284;2024-03-23T01:42:08;11.40;59.60
4312;DHT22;77323;49.086;9.284;2024-03-23T01:43:08;11.40;59.50
4312;DHT22;77323;49.086;9.284;2024-03-23T01:44:09;11.40;59.50
4312;DHT22;77323;49.086;9.284;2024-03-23T01:45:11;11.40;59.50
4312;DHT22;77323;49.086;9.284;2024-03-23T01:46:12;11.40;59.50
4312;DHT22;77323;49.086;9.284;2024-03-23T01:47:12;11.40;59.50
4312;DHT22;77323;49.086;9.284;2024-03-23T01:48:14;11.40;59.50
4312;DHT22;77323;49.086;9.284;2024-03-23T01:49:14;11.40;59.50
4312;DHT22;77323;49.086;9.284;2024-03-23T01:50:15;11.40;59.50
4312;DHT22;77323;49.086;9.284;2024-03-23T01:51:16;11.40;60.10
4312;DHT22;77323;49.086;9.284;2024-03-23T01:52:18;11.40;59.50
4312;DHT22;77323;49.086;9.284;2024-03-23T01:53:19;11.40;59.50
4312;DHT22;77323;49.086;9.284;2024-03-23T01:54:22;11.40;59.50
4312;DHT22;77323;49.086;9.284;2024-03-23T01:55:23;11.40;59.50
4312;DHT22;77323;49.086;9.284;2024-03-23T01:56:25;11.50;59.50
4312;DHT22;77323;49.086;9.284;2024-03-23T01:57:25;11.40;59.40
4312;DHT22;77323;49.086;9.284;2024-03-23T01:58:26;11.40;59.40
4312;DHT22;77323;49.086;9.284;2024-03-23T01:59:26;11.40;59.40
4312;DHT22;77323;49.086;9.284;2024-03-23T02:00:28;11.40;59.40
4312;DHT22;77323;49.086;9.284;2024-03-23T02:01:29;11.40;59.40
4312;DHT22;77323;49.086;9.284;2024-03-23T02:02:30;11.40;59.40
4312;DHT22;77323;49.086;9.284;2024-03-23T02:03:31;11.40;59.30
4312;DHT22;77323;49.086;9.284;2024-03-23T02:04:32;11.40;59.30
4312;DHT22;77323;49.086;9.284;2024-03-23T02:05:33;11.40;59.30
4312;DHT22;77323;49.086;9.284;2024-03-23T02:06:33;11.40;59.20
4312;DHT22;77323;49.086;9.284;2024-03-23T02:07:34;11.40;59.20
4312;DHT22;77323;49.086;9.284;2024-03-23T02:08:35;11.40;59.10
4312;DHT22;77323;49.086;9.284;2024-03-23T02:09:36;11.40;59.10
4312;DHT22;77323;49.086;9.284;2024-03-23T02:10:37;11.40;59.10
4312;DHT22;77323;49.086;9.284;2024-03-23T02:11:37;11.40;59.00
4312;DHT22;77323;49.086;9.284;2024-03-23T02:12:39;11.40;59.00
4312;DHT22;77323;49.086;9.284;2024-03-23T02:13:40;11.40;59.00
4312;DHT22;77323;49.086;9.284;2024-03-23T02:14:40;11.40;59.00
4312;DHT22;77323;49.086;9.284;2024-03-23T02:15:41;11.40;59.00
4312;DHT22;77323;49.086;9.284;2024-03-23T02:16:43;11.50;59.20
4312;DHT22;77323;49.086;9.284;2024-03-23T02:17:44;11.40;59.00
4312;DHT22;77323;49.086;9.284;2024-03-23T02:18:44;11.40;59.10
4312;DHT22;77323;49.086;9.284;2024-03-23T02:19:46;11.40;59.10
4312;DHT22;77323;49.086;9.284;2024-03-23T02:20:47;11.40;59.10
4312;DHT22;77323;49.086;9.284;2024-03-23T02:21:47;11.40;59.10
4312;DHT22;77323;49.086;9.284;2024-03-23T02:22:52;11.40;59.10
4312;DHT22;77323;49.086;9.284;2024-03-23T02:23:53;11.40;59.10
4312;DHT22;77323;49.086;9.284;2024-03-23T02:24:53;11.40;59.10
4312;DHT22;77323;49.086;9.284;2024-03-23T02:25:54;11.40;59.10
4312;DHT22;77323;49.086;9.284;2024-03-23T02:26:56;11.40;59.10
4312;DHT22;77323;49.086;9.284;2024-03-23T02:27:56;11.40;59.10
4312;DHT22;77323;49.086;9.284;2024-03-23T02:28:58;11.40;59.10
4312;DHT22;77323;49.086;9.284;2024-03-23T02:30:00;11.40;59.00
4312;DHT22;77323;49.086;9.284;2024-03-23T02:31:01;11.40;59.10
4312;DHT22;77323;49.086;9.284;2024-03-23T02:32:02;11.40;59.10
4312;DHT22;77323;49.086;9.284;2024-03-23T02:33:04;11.40;59.10
4312;DHT22;77323;49.086;9.284;2024-03-23T02:34:05;11.40;59.10
4312;DHT22;77323;49.086;9.284;2024-03-23T02:35:05;11.40;59.10
4312;DHT22;77323;49.086;9.284;2024-03-23T02:36:07;11.40;59.10
4312;DHT22;77323;49.086;9.284;2024-03-23T02:37:11;11.40;59.10
4312;DHT22;77323;49.086;9.284;2024-03-23T02:38:12;11.30;59.00
4312;DHT22;77323;49.086;9.284;2024-03-23T02:39:12;11.30;59.00
4312;DHT22;77323;49.086;9.284;2024-03-23T02:40:15;11.30;59.00
4312;DHT22;77323;49.086;9.284;2024-03-23T02:41:16;11.30;59.00
4312;DHT22;77323;49.086;9.284;2024-03-23T02:42:23;11.30;59.00
4312;DHT22;77323;49.086;9.284;2024-03-23T02:43:23;11.30;58.90
4312;DHT22;77323;49.086;9.284;2024-03-23T02:44:25;11.60;59.10
4312;DHT22;77323;49.086;9.284;2024-03-23T02:45:25;11.30;59.00
4312;DHT22;77323;49.086;9.284;2024-03-23T02:46:26;11.30;58.90
4312;DHT22;77323;49.086;9.284;2024-03-23T02:47:27;11.30;58.90
4312;DHT22;77323;49.086;9.284;2024-03-23T02:48:28;11.30;58.90
4312;DHT22;77323;49.086;9.284;2024-03-23T02:49:29;11.30;58.90
4312;DHT22;77323;49.086;9.284;2024-03-23T02:50:29;11.30;58.90
4312;DHT22;77323;49.086;9.284;2024-03-23T02:51:31;11.20;58.90
4312;DHT22;77323;49.086;9.284;2024-03-23T02:52:32;11.20;58.90
4312;DHT22;77323;49.086;9.284;2024-03-23T02:53:32;11.30;59.10
4312;DHT22;77323;49.086;9.284;2024-03-23T02:54:34;11.30;59.10
4312;DHT22;77323;49.086;9.284;2024-03-23T02:55:34;11.30;59.10
4312;DHT22;77323;49.086;9.284;2024-03-23T02:56:36;11.30;59.10
4312;DHT22;77323;49.086;9.284;2024-03-23T02:57:36;11.30;59.10
4312;DHT22;77323;49.086;9.284;2024-03-23T02:58:38;11.30;59.10
4312;DHT22;77323;49.086;9.284;2024-03-23T02:59:38;11.30;59.10
4312;DHT22;77323;49.086;9.284;2024-03-23T03:00:39;11.30;59.00
4312;DHT22;77323;49.086;9.284;2024-03-23T03:01:41;11.30;59.00
4312;DHT22;77323;49.086;9.284;2024-03-23T03:02:42;11.30;59.00
4312;DHT22;77323;49.086;9.284;2024-03-23T03:03:43;11.30;59.00
4312;DHT22;77323;49.086;9.284;2024-03-23T03:04:44;11.30;59.10
4312;DHT22;77323;49.086;9.284;2024-03-23T03:05:44;11.30;59.00
4312;DHT22;77323;49.086;9.284;2024-03-23T03:06:49;11.30;59.00
4312;DHT22;77323;49.086;9.284;2024-03-23T03:07:50;11.40;59.20
4312;DHT22;77323;49.086;9.284;2024-03-23T03:08:50;11.30;59.10
4312;DHT22;77323;49.086;9.284;2024-03-23T03:09:51;11.30;59.70
4312;DHT22;77323;49.086;9.284;2024-03-23T03:10:52;11.30;58.70
4312;DHT22;77323;49.086;9.284;2024-03-23T03:11:53;11.40;59.20
4312;DHT22;77323;49.086;9.284;2024-03-23T03:12:54;11.30;59.10
4312;DHT22;77323;49.086;9.284;2024-03-23T03:13:55;11.30;59.20
4312;DHT22;77323;49.086;9.284;2024-03-23T03:14:56;11.40;59.30
4312;DHT22;77323;49.086;9.284;2024-03-23T03:15:56;11.40;59.40
4312;DHT22;77323;49.086;9.284;2024-03-23T03:16:58;11.40;59.40
4312;DHT22;77323;49.086;9.284;2024-03-23T03:17:59;11.40;59.40
4312;DHT22;77323;49.086;9.284;2024-03-23T03:19:00;11.40;59.40
4312;DHT22;77323;49.086;9.284;2024-03-23T03:20:01;11.40;59.40
4312;DHT22;77323;49.086;9.284;2024-03-23T03:21:04;11.40;59.40
4312;DHT22;77323;49.086;9.284;2024-03-23T03:22:09;11.50;59.50
4312;DHT22;77323;49.086;9.284;2024-03-23T03:23:09;11.40;59.40
4312;DHT22;77323;49.086;9.284;2024-03-23T03:24:10;11.40;59.40
4312;DHT22;77323;49.086;9.284;2024-03-23T03:25:12;11.40;59.40
4312;DHT22;77323;49.086;9.284;2024-03-23T03:26:12;11.40;59.40
4312;DHT22;77323;49.086;9.284;2024-03-23T03:27:13;11.40;59.50
4312;DHT22;77323;49.086;9.284;2024-03-23T03:28:14;11.40;59.50
4312;DHT22;77323;49.086;9.284;2024-03-23T03:29:16;11.40;59.50
4312;DHT22;77323;49.086;9.284;2024-03-23T03:30:16;11.40;60.20
4312;DHT22;77323;49.086;9.284;2024-03-23T03:31:18;11.40;59.60
4312;DHT22;77323;49.086;9.284;2024-03-23T03:32:19;11.40;59.70
4312;DHT22;77323;49.086;9.284;2024-03-23T03:33:20;11.40;59.60
4312;DHT22;77323;49.086;9.284;2024-03-23T03:34:21;11.40;59.70
4312;DHT22;77323;49.086;9.284;2024-03-23T03:35:22;11.40;59.70
4312;DHT22;77323;49.086;9.284;2024-03-23T03:36:23;11.70;59.90
4312;DHT22;77323;49.086;9.284;2024-03-23T03:37:24;11.40;59.70
4312;DHT22;77323;49.086;9.284;2024-03-23T03:38:25;11.40;59.70
4312;DHT22;77323;49.086;9.284;2024-03-23T03:39:26;11.40;59.80
4312;DHT22;77323;49.086;9.284;2024-03-23T03:40:27;11.40;59.80
4312;DHT22;77323;49.086;9.284;2024-03-23T03:41:27;11.40;60.20
4312;DHT22;77323;49.086;9.284;2024-03-23T03:42:29;11.50;59.90
4312;DHT22;77323;49.086;9.284;2024-03-23T03:43:29;11.50;59.90
4312;DHT22;77323;49.086;9.284;2024-03-23T03:44:30;11.50;59.80
4312;DHT22;77323;49.086;9.284;2024-03-23T03:45:31;11.50;59.80
4312;DHT22;77323;49.086;9.284;2024-03-23T03:46:32;11.50;59.80
4312;DHT22;77323;49.086;9.284;2024-03-23T03:47:33;11.50;59.90
4312;DHT22;77323;49.086;9.284;2024-03-23T03:48:34;11.50;59.90
4312;DHT22;77323;49.086;9.284;2024-03-23T03:49:35;11.50;59.90
4312;DHT22;77323;49.086;9.284;2024-03-23T03:50:36;11.50;59.90
4312;DHT22;77323;49.086;9.284;2024-03-23T03:51:37;11.50;59.90
4312;DHT22;77323;49.086;9.284;2024-03-23T03:52:37;11.50;60.00
4312;DHT22;77323;49.086;9.284;2024-03-23T03:53:39;11.50;60.00
4312;DHT22;77323;49.086;9.284;2024-03-23T03:54:39;11.50;60.00
4312;DHT22;77323;49.086;9.284;2024-03-23T03:55:40;11.50;60.00
4312;DHT22;77323;49.086;9.284;2024-03-23T03:56:40;11.50;60.00
4312;DHT22;77323;49.086;9.284;2024-03-23T03:57:42;11.50;60.00
4312;DHT22;77323;49.086;9.284;2024-03-23T03:58:43;11.50;60.10
4312;DHT22;77323;49.086;9.284;2024-03-23T03:59:43;11.50;60.10
4312;DHT22;77323;49.086;9.284;2024-03-23T04:00:44;11.50;60.20
4312;DHT22;77323;49.086;9.284;2024-03-23T04:01:46;11.50;60.20
4312;DHT22;77323;49.086;9.284;2024-03-23T04:02:46;11.60;60.40
4312;DHT22;77323;49.086;9.284;2024-03-23T04:03:47;11.60;60.40
4312;DHT22;77323;49.086;9.284;2024-03-23T04:04:48;11.60;60.40
4312;DHT22;77323;49.086;9.284;2024-03-23T04:05:53;11.60;60.50
4312;DHT22;77323;49.086;9.284;2024-03-23T04:07:00;11.60;60.60
4312;DHT22;77323;49.086;9.284;2024-03-23T04:08:01;11.60;60.60
4312;DHT22;77323;49.086;9.284;2024-03-23T04:09:03;11.60;60.60
4312;DHT22;77323;49.086;9.284;2024-03-23T04:10:04;11.60;60.70
4312;DHT22;77323;49.086;9.284;2024-03-23T04:11:07;11.60;60.80
4312;DHT22;77323;49.086;9.284;2024-03-23T04:12:09;11.70;61.00
4312;DHT22;77323;49.086;9.284;2024-03-23T04:13:11;11.70;61.10
4312;DHT22;77323;49.086;9.284;2024-03-23T04:14:11;11.70;61.30
4312;DHT22;77323;49.086;9.284;2024-03-23T04:15:12;11.70;61.30
4312;DHT22;77323;49.086;9.284;2024-03-23T04:16:27;11.80;61.40
4312;DHT22;77323;49.086;9.284;2024-03-23T04:17:29;11.80;61.50
4312;DHT22;77323;49.086;9.284;2024-03-23T04:18:32;11.90;61.50
4312;DHT22;77323;49.086;9.284;2024-03-23T04:19:32;11.90;62.20
4312;DHT22;77323;49.086;9.284;2024-03-23T04:20:33;11.90;61.60
4312;DHT22;77323;49.086;9.284;2024-03-23T04:21:36;12.00;61.70
4312;DHT22;77323;49.086;9.284;2024-03-23T04:22:37;12.00;61.70
4312;DHT22;77323;49.086;9.284;2024-03-23T04:23:38;12.00;61.60
4312;DHT22;77323;49.086;9.284;2024-03-23T04:24:39;12.10;61.70
4312;DHT22;77323;49.086;9.284;2024-03-23T04:25:40;12.10;61.90
4312;DHT22;77323;49.086;9.284;2024-03-23T04:26:42;12.10;61.90
4312;DHT22;77323;49.086;9.284;2024-03-23T04:27:42;12.20;61.90
4312;DHT22;77323;49.086;9.284;2024-03-23T04:28:44;12.20;61.90
4312;DHT22;77323;49.086;9.284;2024-03-23T04:29:51;12.30;62.00
4312;DHT22;77323;49.086;9.284;2024-03-23T04:30:51;12.30;62.00
4312;DHT22;77323;49.086;9.284;2024-03-23T04:31:52;12.30;62.00
4312;DHT22;77323;49.086;9.284;2024-03-23T04:32:53;12.40;62.00
4312;DHT22;77323;49.086;9.284;2024-03-23T04:33:54;12.40;62.10
4312;DHT22;77323;49.086;9.284;2024-03-23T04:34:55;12.40;62.00
4312;DHT22;77323;49.086;9.284;2024-03-23T04:35:56;12.40;62.00
4312;DHT22;77323;49.086;9.284;2024-03-23T04:36:57;12.40;62.00
4312;DHT22;77323;49.086;9.284;2024-03-23T04:37:57;12.50;62.20
4312;DHT22;77323;49.086;9.284;2024-03-23T04:39:00;12.50;62.20
4312;DHT22;77323;49.086;9.284;2024-03-23T04:40:01;12.50;62.30
4312;DHT22;77323;49.086;9.284;2024-03-23T04:41:04;12.50;62.30
4312;DHT22;77323;49.086;9.284;2024-03-23T04:42:05;12.50;62.30
4312;DHT22;77323;49.086;9.284;2024-03-23T04:43:05;12.60;62.40
4312;DHT22;77323;49.086;9.284;2024-03-23T04:44:07;12.60;62.50
4312;DHT22;77323;49.086;9.284;2024-03-23T04:45:08;12.60;62.60
4312;DHT22;77323;49.086;9.284;2024-03-23T04:46:09;12.60;62.80
4312;DHT22;77323;49.086;9.284;2024-03-23T04:47:10;12.60;62.80
4312;DHT22;77323;49.086;9.284;2024-03-23T04:48:11;12.60;62.90
4312;DHT22;77323;49.086;9.284;2024-03-23T04:49:13;12.70;63.10
4312;DHT22;77323;49.086;9.284;2024-03-23T04:50:13;12.70;63.20
4312;DHT22;77323;49.086;9.284;2024-03-23T04:51:23;12.70;63.30
4312;DHT22;77323;49.086;9.284;2024-03-23T04:52:25;12.70;63.30
4312;DHT22;77323;49.086;9.284;2024-03-23T04:53:25;12.70;63.30
4312;DHT22;77323;49.086;9.284;2024-03-23T04:54:28;12.70;63.30
4312;DHT22;77323;49.086;9.284;2024-03-23T04:55:30;12.70;63.30
4312;DHT22;77323;49.086;9.284;2024-03-23T04:56:31;12.70;63.40
4312;DHT22;77323;49.086;9.284;2024-03-23T04:57:32;12.70;63.50
4312;DHT22;77323;49.086;9.284;2024-03-23T04:58:33;12.70;63.50
4312;DHT22;77323;49.086;9.284;2024-03-23T04:59:34;12.70;63.60
4312;DHT22;77323;49.086;9.284;2024-03-23T05:00:35;12.70;63.60
4312;DHT22;77323;49.086;9.284;2024-03-23T05:01:35;12.70;63.60
4312;DHT22;77323;49.086;9.284;2024-03-23T05:02:39;12.70;63.60
4312;DHT22;77323;49.086;9.284;2024-03-23T05:03:40;12.70;63.60
4312;DHT22;77323;49.086;9.284;2024-03-23T05:04:40;12.70;63.70
4312;DHT22;77323;49.086;9.284;2024-03-23T05:05:41;12.70;63.70
4312;DHT22;77323;49.086;9.284;2024-03-23T05:06:43;12.70;63.70
4312;DHT22;77323;49.086;9.284;2024-03-23T05:07:43;12.70;63.70
4312;DHT22;77323;49.086;9.284;2024-03-23T05:08:44;12.70;63.70
4312;DHT22;77323;49.086;9.284;2024-03-23T05:09:46;12.70;63.70
4312;DHT22;77323;49.086;9.284;2024-03-23T05:10:49;12.80;63.80
4312;DHT22;77323;49.086;9.284;2024-03-23T05:11:49;12.80;63.80
4312;DHT22;77323;49.086;9.284;2024-03-23T05:12:50;12.80;63.80
4312;DHT22;77323;49.086;9.284;2024-03-23T05:13:52;12.80;63.80
4312;DHT22;77323;49.086;9.284;2024-03-23T05:14:52;12.80;63.90
4312;DHT22;77323;49.086;9.284;2024-03-23T05:15:53;12.80;63.80
4312;DHT22;77323;49.086;9.284;2024-03-23T05:16:54;12.80;63.80
4312;DHT22;77323;49.086;9.284;2024-03-23T05:17:56;12.80;63.80
4312;DHT22;77323;49.086;9.284;2024-03-23T05:18:56;12.80;63.80
4312;DHT22;77323;49.086;9.284;2024-03-23T05:19:57;12.80;63.70
4312;DHT22;77323;49.086;9.284;2024-03-23T05:20:58;12.80;63.70
4312;DHT22;77323;49.086;9.284;2024-03-23T05:22:00;12.80;63.70
4312;DHT22;77323;49.086;9.284;2024-03-23T05:23:00;12.80;63.60
4312;DHT22;77323;49.086;9.284;2024-03-23T05:24:01;12.80;63.70
4312;DHT22;77323;49.086;9.284;2024-03-23T05:25:02;12.80;63.60
4312;DHT22;77323;49.086;9.284;2024-03-23T05:26:05;12.80;63.70
4312;DHT22;77323;49.086;9.284;2024-03-23T05:27:05;12.80;63.60
4312;DHT22;77323;49.086;9.284;2024-03-23T05:28:06;12.80;63.50
4312;DHT22;77323;49.086;9.284;2024-03-23T05:29:08;12.80;63.40
4312;DHT22;77323;49.086;9.284;2024-03-23T05:30:11;12.70;63.40
4312;DHT22;77323;49.086;9.284;2024-03-23T05:31:12;12.80;63.40
4312;DHT22;77323;49.086;9.284;2024-03-23T05:32:12;12.70;63.30
4312;DHT22;77323;49.086;9.284;2024-03-23T05:33:14;12.70;63.30
4312;DHT22;77323;49.086;9.284;2024-03-23T05:34:14;12.70;63.30
4312;DHT22;77323;49.086;9.284;2024-03-23T05:35:15;12.70;63.30
4312;DHT22;77323;49.086;9.284;2024-03-23T05:36:16;12.70;63.30
4312;DHT22;77323;49.086;9.284;2024-03-23T05:37:17;12.70;63.30
4312;DHT22;77323;49.086;9.284;2024-03-23T05:38:18;12.70;63.30
4312;DHT22;77323;49.086;9.284;2024-03-23T05:39:19;12.70;63.30
4312;DHT22;77323;49.086;9.284;2024-03-23T05:40:22;12.70;63.30
4312;DHT22;77323;49.086;9.284;2024-03-23T05:41:24;12.70;63.30
4312;DHT22;77323;49.086;9.284;2024-03-23T05:42:25;12.70;63.30
4312;DHT22;77323;49.086;9.284;2024-03-23T05:43:26;12.70;63.40
4312;DHT22;77323;49.086;9.284;2024-03-23T05:44:26;12.70;63.30
4312;DHT22;77323;49.086;9.284;2024-03-23T05:45:29;12.70;63.30
4312;DHT22;77323;49.086;9.284;2024-03-23T05:46:29;12.70;63.30
4312;DHT22;77323;49.086;9.284;2024-03-23T05:47:30;12.60;63.30
4312;DHT22;77323;49.086;9.284;2024-03-23T05:48:31;12.70;63.30
4312;DHT22;77323;49.086;9.284;2024-03-23T05:49:32;12.70;63.40
4312;DHT22;77323;49.086;9.284;2024-03-23T05:50:33;12.90;63.50
4312;DHT22;77323;49.086;9.284;2024-03-23T05:51:33;12.70;63.30
4312;DHT22;77323;49.086;9.284;2024-03-23T05:52:35;12.70;63.30
4312;DHT22;77323;49.086;9.284;2024-03-23T05:53:35;12.70;63.30
4312;DHT22;77323;49.086;9.284;2024-03-23T05:54:36;12.70;63.30
4312;DHT22;77323;49.086;9.284;2024-03-23T05:55:38;12.70;63.30
4312;DHT22;77323;49.086;9.284;2024-03-23T05:56:38;12.60;63.20
4312;DHT22;77323;49.086;9.284;2024-03-23T05:57:39;12.60;63.20
4312;DHT22;77323;49.086;9.284;2024-03-23T05:58:40;12.60;63.20
4312;DHT22;77323;49.086;9.284;2024-03-23T05:59:41;12.60;63.10
4312;DHT22;77323;49.086;9.284;2024-03-23T06:00:42;12.60;63.10
4312;DHT22;77323;49.086;9.284;2024-03-23T06:01:43;12.60;63.10
4312;DHT22;77323;49.086;9.284;2024-03-23T06:02:44;12.60;63.10
4312;DHT22;77323;49.086;9.284;2024-03-23T06:03:45;12.60;63.00
4312;DHT22;77323;49.086;9.284;2024-03-23T06:04:46;12.60;63.00
4312;DHT22;77323;49.086;9.284;2024-03-23T06:05:47;12.60;63.00
4312;DHT22;77323;49.086;9.284;2024-03-23T06:06:47;12.60;63.10
4312;DHT22;77323;49.086;9.284;2024-03-23T06:07:49;12.60;63.00
4312;DHT22;77323;49.086;9.284;2024-03-23T06:08:50;12.60;63.10
4312;DHT22;77323;49.086;9.284;2024-03-23T06:09:50;12.60;63.10
4312;DHT22;77323;49.086;9.284;2024-03-23T06:10:51;12.60;63.10
4312;DHT22;77323;49.086;9.284;2024-03-23T06:11:53;12.50;62.90
4312;DHT22;77323;49.086;9.284;2024-03-23T06:12:53;12.50;62.90
4312;DHT22;77323;49.086;9.284;2024-03-23T06:13:54;12.50;62.90
4312;DHT22;77323;49.086;9.284;2024-03-23T06:14:56;12.50;63.00
4312;DHT22;77323;49.086;9.284;2024-03-23T06:15:57;12.50;63.00
4312;DHT22;77323;49.086;9.284;2024-03-23T06:16:59;12.50;63.00
4312;DHT22;77323;49.086;9.284;2024-03-23T06:18:00;12.40;62.90
4312;DHT22;77323;49.086;9.284;2024-03-23T06:19:01;12.50;63.00
4312;DHT22;77323;49.086;9.284;2024-03-23T06:20:05;12.50;63.10
4312;DHT22;77323;49.086;9.284;2024-03-23T06:21:13;12.50;63.10
4312;DHT22;77323;49.086;9.284;2024-03-23T06:22:15;12.50;63.20
4312;DHT22;77323;49.086;9.284;2024-03-23T06:23:15;12.40;63.00
4312;DHT22;77323;49.086;9.284;2024-03-23T06:24:17;12.50;63.10
4312;DHT22;77323;49.086;9.284;2024-03-23T06:25:18;12.40;63.00
4312;DHT22;77323;49.086;9.284;2024-03-23T06:26:20;12.40;63.70
4312;DHT22;77323;49.086;9.284;2024-03-23T06:27:21;12.40;63.10
4312;DHT22;77323;49.086;9.284;2024-03-23T06:28:21;12.50;63.10
4312;DHT22;77323;49.086;9.284;2024-03-23T06:29:22;12.40;63.10
4312;DHT22;77323;49.086;9.284;2024-03-23T06:30:24;12.40;63.10
4312;DHT22;77323;49.086;9.284;2024-03-23T06:31:25;12.40;63.20
4312;DHT22;77323;49.086;9.284;2024-03-23T06:32:25;12.40;63.30
4312;DHT22;77323;49.086;9.284;2024-03-23T06:33:26;12.40;63.30
4312;DHT22;77323;49.086;9.284;2024-03-23T06:34:27;12.40;63.40
4312;DHT22;77323;49.086;9.284;2024-03-23T06:35:28;12.40;63.40
4312;DHT22;77323;49.086;9.284;2024-03-23T06:36:29;12.40;63.50
4312;DHT22;77323;49.086;9.284;2024-03-23T06:37:31;12.40;63.60
4312;DHT22;77323;49.086;9.284;2024-03-23T06:38:31;12.40;63.60
4312;DHT22;77323;49.086;9.284;2024-03-23T06:39:33;12.40;63.50
4312;DHT22;77323;49.086;9.284;2024-03-23T06:40:36;12.30;63.40
4312;DHT22;77323;49.086;9.284;2024-03-23T06:41:36;12.30;63.50
4312;DHT22;77323;49.086;9.284;2024-03-23T06:42:37;12.30;63.50
4312;DHT22;77323;49.086;9.284;2024-03-23T06:43:38;12.30;63.60
4312;DHT22;77323;49.086;9.284;2024-03-23T06:44:40;12.30;63.60
4312;DHT22;77323;49.086;9.284;2024-03-23T06:45:40;12.30;63.70
4312;DHT22;77323;49.086;9.284;2024-03-23T06:46:41;12.30;63.60
4312;DHT22;77323;49.086;9.284;2024-03-23T06:47:42;12.20;63.60
4312;DHT22;77323;49.086;9.284;2024-03-23T06:48:45;12.20;63.50
4312;DHT22;77323;49.086;9.284;2024-03-23T06:49:45;12.20;63.50
4312;DHT22;77323;49.086;9.284;2024-03-23T06:50:47;12.30;63.60
4312;DHT22;77323;49.086;9.284;2024-03-23T06:51:48;12.20;63.40
4312;DHT22;77323;49.086;9.284;2024-03-23T06:52:49;12.20;63.30
4312;DHT22;77323;49.086;9.284;2024-03-23T06:53:50;12.20;63.20
4312;DHT22;77323;49.086;9.284;2024-03-23T06:54:52;12.20;63.10
4312;DHT22;77323;49.086;9.284;2024-03-23T06:55:53;12.20;63.00
4312;DHT22;77323;49.086;9.284;2024-03-23T06:56:54;12.20;62.90
4312;DHT22;77323;49.086;9.284;2024-03-23T06:57:54;12.20;62.70
4312;DHT22;77323;49.086;9.284;2024-03-23T06:58:57;12.20;62.60
4312;DHT22;77323;49.086;9.284;2024-03-23T06:59:57;12.20;62.50
4312;DHT22;77323;49.086;9.284;2024-03-23T07:00:58;12.20;62.30
4312;DHT22;77323;49.086;9.284;2024-03-23T07:01:58;12.20;62.30
4312;DHT22;77323;49.086;9.284;2024-03-23T07:03:01;12.10;62.00
4312;DHT22;77323;49.086;9.284;2024-03-23T07:04:02;12.10;61.90
4312;DHT22;77323;49.086;9.284;2024-03-23T07:05:04;12.10;61.90
4312;DHT22;77323;49.086;9.284;2024-03-23T07:06:05;12.10;61.80
4312;DHT22;77323;49.086;9.284;2024-03-23T07:07:06;12.20;61.80
4312;DHT22;77323;49.086;9.284;2024-03-23T07:08:07;12.00;61.30
4312;DHT22;77323;49.086;9.284;2024-03-23T07:09:08;12.00;60.90
4312;DHT22;77323;49.086;9.284;2024-03-23T07:10:09;11.90;60.50
4312;DHT22;77323;49.086;9.284;2024-03-23T07:11:10;11.90;60.30
4312;DHT22;77323;49.086;9.284;2024-03-23T07:12:11;11.80;59.90
4312;DHT22;77323;49.086;9.284;2024-03-23T07:13:12;11.80;59.80
4312;DHT22;77323;49.086;9.284;2024-03-23T07:14:12;11.70;59.70
4312;DHT22;77323;49.086;9.284;2024-03-23T07:15:14;11.60;59.60
4312;DHT22;77323;49.086;9.284;2024-03-23T07:16:15;11.60;59.60
4312;DHT22;77323;49.086;9.284;2024-03-23T07:17:16;11.50;59.60
4312;DHT22;77323;49.086;9.284;2024-03-23T07:18:18;11.50;60.10
4312;DHT22;77323;49.086;9.284;2024-03-23T07:19:20;11.50;59.60
4312;DHT22;77323;49.086;9.284;2024-03-23T07:20:20;11.40;59.60
4312;DHT22;77323;49.086;9.284;2024-03-23T07:21:21;11.40;59.70
4312;DHT22;77323;49.086;9.284;2024-03-23T07:22:22;11.40;59.80
4312;DHT22;77323;49.086;9.284;2024-03-23T07:23:25;11.40;59.90